Time;durP1;ratioP1;P1;durP2;ratioP2;P2;SDS_P1;SDS_P2;PMS_P1;PMS_P2;Temp;Humidity;BMP_temperature;BMP_pressure;BME280_temperature;BME280_humidity;BME280_pressure;Samples;Min_cycle;Max_cycle;Signal;HPM_P1;HPM_P2
2022/07/02 00:00:02;;;;;;;9.50;5.97;;;;;;;12.02;92.84;102163.50;6306476;22;19999;-79
2022/07/02 00:02:28;;;;;;;6.32;5.25;;;;;;;11.96;92.81;102162.03;6279179;22;20078;-76
2022/07/02 00:05:03;;;;;;;8.48;5.53;;;;;;;11.92;93.58;102150.16;6306338;22;19999;-73
2022/07/02 00:07:29;;;;;;;8.57;5.10;;;;;;;11.90;93.19;102164.09;6306522;22;19999;-77
2022/07/02 00:09:55;;;;;;;8.20;5.97;;;;;;;11.86;93.69;102159.94;6307025;22;20006;-80
2022/07/02 00:12:22;;;;;;;9.95;4.70;;;;;;;11.83;93.22;102160.94;6306417;22;20443;-80
2022/07/02 00:14:54;;;;;;;9.82;5.70;;;;;;;11.81;92.95;102162.75;6306595;22;20010;-80
2022/07/02 00:17:19;;;;;;;7.30;5.18;;;;;;;11.73;93.47;102141.53;6306928;22;19999;-81
2022/07/02 00:19:45;;;;;;;7.40;5.53;;;;;;;11.76;93.70;102162.94;6279075;22;20082;-80
2022/07/02 00:22:11;;;;;;;9.15;5.68;;;;;;;11.75;94.29;102165.59;6306697;22;20010;-79
2022/07/02 00:24:40;;;;;;;8.88;6.22;;;;;;;11.73;94.12;102173.44;6306511;22;19999;-81
2022/07/02 00:27:08;;;;;;;9.60;6.07;;;;;;;11.53;94.47;102144.22;6306094;22;20008;-81
2022/07/02 00:29:42;;;;;;;9.05;5.88;;;;;;;11.63;94.76;102161.00;6306738;22;20073;-81
2022/07/02 00:32:08;;;;;;;7.57;5.80;;;;;;;11.58;94.54;102161.19;6306351;22;20010;-79
2022/07/02 00:34:36;;;;;;;9.13;5.55;;;;;;;11.57;94.46;102164.69;6306573;22;20011;-80
2022/07/02 00:37:02;;;;;;;8.55;5.57;;;;;;;11.33;94.64;102133.03;6306538;22;19999;-81
2022/07/02 00:39:28;;;;;;;10.77;5.20;;;;;;;11.44;94.66;102161.81;6306945;22;20010;-81
2022/07/02 00:41:54;;;;;;;9.48;5.38;;;;;;;11.15;95.06;102119.19;6306198;22;20003;-81
2022/07/02 00:44:22;;;;;;;7.43;5.13;;;;;;;11.18;95.22;102134.53;6306410;22;20057;-75
2022/07/02 00:46:48;;;;;;;8.25;5.28;;;;;;;11.14;95.05;102130.44;6306365;22;20442;-71
2022/07/02 00:49:14;;;;;;;6.70;5.25;;;;;;;11.33;94.92;102165.81;6307298;22;20012;-79
2022/07/02 00:51:39;;;;;;;9.35;5.07;;;;;;;11.28;94.98;102160.81;6308600;22;20011;-77
2022/07/02 00:54:04;;;;;;;8.68;5.65;;;;;;;11.20;95.20;102150.81;6308428;22;20004;-75
2022/07/02 00:56:31;;;;;;;7.68;5.80;;;;;;;11.24;95.84;102154.13;6308394;22;20007;-80
2022/07/02 00:58:56;;;;;;;8.98;5.88;;;;;;;11.18;95.62;102144.88;6308331;22;20003;-80
2022/07/02 01:01:21;;;;;;;17.10;5.70;;;;;;;11.19;95.17;102156.06;6308070;22;20026;-80
2022/07/02 01:03:49;;;;;;;9.15;5.88;;;;;;;11.16;96.00;102157.03;6308041;22;20007;-78
2022/07/02 01:06:17;;;;;;;9.52;6.13;;;;;;;11.02;95.78;102145.66;6308262;22;20004;-79
2022/07/02 01:11:30;;;;;;;9.48;6.43;;;;;;;11.05;96.47;102151.50;6308157;22;20588;-80
2022/07/02 01:13:56;;;;;;;9.98;6.22;;;;;;;11.00;96.17;102129.34;6280643;22;19999;-80
2022/07/02 01:16:22;;;;;;;7.63;5.57;;;;;;;11.00;96.31;102139.69;6308306;22;20065;-78
2022/07/02 01:18:47;;;;;;;8.40;5.97;;;;;;;11.07;96.51;102152.28;6308253;22;20007;-78
2022/07/02 01:21:13;;;;;;;9.73;6.25;;;;;;;11.06;96.07;102149.75;6307855;22;20003;-78
2022/07/02 01:23:38;;;;;;;9.93;6.43;;;;;;;11.02;96.38;102149.06;6308090;22;20003;-82
2022/07/02 01:26:04;;;;;;;9.25;5.80;;;;;;;11.00;96.22;102152.59;6307734;22;20012;-79
2022/07/02 01:28:30;;;;;;;8.90;6.13;;;;;;;11.00;96.54;102160.34;6308550;22;20030;-83
2022/07/02 01:30:55;;;;;;;10.18;6.78;;;;;;;10.97;97.11;102155.34;6307879;22;20007;-82
2022/07/02 01:33:21;;;;;;;9.57;6.50;;;;;;;11.06;96.88;102154.94;6308363;22;20404;-81
2022/07/02 01:35:46;;;;;;;9.82;6.32;;;;;;;10.77;97.47;102102.75;6308308;22;20028;-83
2022/07/02 01:38:12;;;;;;;11.57;6.65;;;;;;;11.13;97.55;102154.59;6308096;22;20324;-82
2022/07/02 01:40:37;;;;;;;8.93;6.43;;;;;;;11.22;97.63;102152.53;6308315;22;20007;-80
2022/07/02 01:43:03;;;;;;;10.63;6.60;;;;;;;11.12;97.51;102139.16;6308154;22;20018;-79
2022/07/02 01:45:28;;;;;;;8.27;6.20;;;;;;;11.28;97.31;102162.56;6307564;22;19999;-79
2022/07/02 01:47:53;;;;;;;9.38;6.38;;;;;;;11.30;97.37;102164.19;6307797;22;20421;-80
2022/07/02 01:50:19;;;;;;;8.15;5.90;;;;;;;11.32;97.19;102166.72;6307722;22;20393;-78
2022/07/02 01:52:44;;;;;;;10.25;6.35;;;;;;;11.33;97.37;102161.47;6307786;22;20007;-79
2022/07/02 01:55:09;;;;;;;9.73;6.18;;;;;;;11.34;97.08;102157.13;6308032;22;20007;-78
2022/07/02 01:57:35;;;;;;;9.18;6.60;;;;;;;11.31;96.81;102155.53;6307658;22;20081;-73
2022/07/02 02:00:04;;;;;;;9.55;6.20;;;;;;;11.29;96.89;102153.91;6307856;22;20324;-74
2022/07/02 02:02:29;;;;;;;9.35;6.97;;;;;;;11.16;97.34;102138.94;6307321;22;20021;-79
2022/07/02 02:04:55;;;;;;;11.07;6.90;;;;;;;11.24;97.41;102150.69;6307395;22;19999;-80
2022/07/02 02:07:20;;;;;;;8.45;6.70;;;;;;;11.07;97.48;102116.09;6307704;22;19999;-78
2022/07/02 02:09:46;;;;;;;11.80;7.05;;;;;;;11.32;97.50;102148.63;6307775;22;20006;-80
2022/07/02 02:12:11;;;;;;;8.70;6.75;;;;;;;11.28;97.39;102139.31;6307055;22;20297;-80
2022/07/02 02:14:36;;;;;;;9.13;6.22;;;;;;;11.05;97.46;102102.41;6307535;22;20420;-77
2022/07/02 02:17:02;;;;;;;9.50;6.72;;;;;;;11.30;97.69;102142.66;6307542;22;20417;-80
2022/07/02 02:19:27;;;;;;;9.02;6.72;;;;;;;11.28;97.82;102144.47;6307703;22;20417;-78
2022/07/02 02:21:52;;;;;;;10.10;6.65;;;;;;;11.26;97.57;102139.38;6307418;22;20034;-79
2022/07/02 02:24:18;;;;;;;11.73;6.22;;;;;;;11.28;97.82;102154.81;6307493;22;20317;-78
2022/07/02 02:26:43;;;;;;;8.60;6.40;;;;;;;11.29;97.86;102146.16;6307127;22;20037;-77
2022/07/02 02:29:09;;;;;;;9.23;6.68;;;;;;;11.28;98.07;102139.31;6307276;22;20009;-79
2022/07/02 02:31:34;;;;;;;10.10;6.50;;;;;;;11.25;98.00;102148.03;6307583;22;20408;-79
2022/07/02 02:33:59;;;;;;;9.20;6.38;;;;;;;11.30;98.13;102147.81;6307316;22;19999;-75
2022/07/02 02:36:25;;;;;;;10.63;7.15;;;;;;;11.28;98.41;102147.91;6307207;22;20003;-73
2022/07/02 02:38:50;;;;;;;8.93;6.35;;;;;;;11.18;98.35;102118.19;6307404;22;20504;-78
2022/07/02 02:41:16;;;;;;;11.27;6.80;;;;;;;11.44;98.68;102150.66;6307097;22;20003;-80
2022/07/02 02:43:42;;;;;;;10.32;6.35;;;;;;;11.49;98.73;102141.75;6307522;22;20301;-83
2022/07/02 02:46:07;;;;;;;11.27;7.13;;;;;;;11.62;98.67;102149.81;6307242;22;20035;-79
2022/07/02 02:48:34;;;;;;;12.20;6.30;;;;;;;11.63;98.69;102141.13;6307216;22;20385;-77
2022/07/02 02:50:59;;;;;;;8.93;5.55;;;;;;;11.74;97.54;102149.22;6307358;22;20010;-76
2022/07/02 02:53:25;;;;;;;9.43;6.32;;;;;;;11.62;97.90;102123.94;6306929;22;20035;-79
2022/07/02 02:55:50;;;;;;;8.82;5.97;;;;;;;11.64;97.32;102150.56;6307424;22;19999;-79
2022/07/02 02:58:16;;;;;;;11.38;5.72;;;;;;;11.45;96.65;102132.47;6307397;22;20056;-80
2022/07/02 03:00:41;;;;;;;9.65;5.70;;;;;;;11.60;96.99;102156.81;6307047;22;20425;-78
2022/07/02 03:03:06;;;;;;;12.13;5.93;;;;;;;11.60;96.80;102166.28;6306838;22;20014;-79
2022/07/02 03:05:32;;;;;;;7.68;5.72;;;;;;;11.34;96.94;102126.09;6279941;22;20003;-76
2022/07/02 03:07:57;;;;;;;8.50;6.10;;;;;;;11.57;97.37;102156.94;6306793;22;20011;-73
2022/07/02 03:10:22;;;;;;;10.48;5.50;;;;;;;11.54;97.14;102164.84;6307073;22;20018;-72
2022/07/02 03:12:48;;;;;;;9.13;5.70;;;;;;;11.52;97.74;102164.06;6307082;22;20359;-78
2022/07/02 03:15:13;;;;;;;9.98;5.53;;;;;;;11.46;97.86;102165.19;6306803;22;20091;-78
2022/07/02 03:17:39;;;;;;;8.80;5.38;;;;;;;11.41;97.49;102164.56;6307220;22;20010;-79
2022/07/02 03:20:05;;;;;;;8.02;4.95;;;;;;;11.10;97.19;102121.09;6306726;22;20424;-73
2022/07/02 03:22:31;;;;;;;10.13;5.80;;;;;;;11.23;97.43;102162.78;6278346;22;20014;-79
2022/07/02 03:24:56;;;;;;;9.05;5.78;;;;;;;11.11;97.63;102153.84;6306827;22;20007;-78
2022/07/02 03:27:21;;;;;;;8.68;5.60;;;;;;;11.15;97.44;102170.03;6306862;22;20490;-80
2022/07/02 03:29:47;;;;;;;8.93;6.00;;;;;;;11.13;97.55;102179.63;6306908;22;19999;-78
2022/07/02 03:32:12;;;;;;;8.82;5.28;;;;;;;10.98;97.94;102154.41;6306559;22;20037;-75
2022/07/02 03:34:37;;;;;;;8.20;5.82;;;;;;;11.02;98.49;102167.16;6278849;22;20007;-73
2022/07/02 03:37:03;;;;;;;11.48;5.70;;;;;;;11.21;98.73;102185.31;6306536;22;20421;-78
2022/07/02 03:39:29;;;;;;;8.82;5.82;;;;;;;11.33;98.81;102197.69;6306788;22;20029;-80
2022/07/02 03:41:54;;;;;;;8.85;5.88;;;;;;;11.34;98.85;102170.06;6306639;22;20005;-80
2022/07/02 03:44:19;;;;;;;13.95;6.00;;;;;;;11.63;98.69;102198.06;6306922;22;20018;-78
2022/07/02 03:46:45;;;;;;;9.07;5.82;;;;;;;11.76;98.64;102196.56;6306968;22;20003;-73
2022/07/02 03:49:10;;;;;;;9.52;6.00;;;;;;;11.86;98.48;102188.41;6306632;22;20327;-75
2022/07/02 03:51:36;;;;;;;10.02;5.50;;;;;;;11.93;98.28;102190.66;6278956;22;20003;-76
2022/07/02 03:54:02;;;;;;;10.27;5.80;;;;;;;11.99;98.08;102180.00;6306929;22;20011;-80
2022/07/02 03:56:28;;;;;;;9.57;5.65;;;;;;;12.02;97.31;102186.78;6306704;22;20332;-76
2022/07/02 03:58:53;;;;;;;8.38;5.57;;;;;;;12.03;96.04;102178.13;6306625;22;20006;-79
2022/07/02 04:01:19;;;;;;;10.50;5.60;;;;;;;12.02;94.92;102184.22;6306767;22;20034;-78
2022/07/02 04:03:44;;;;;;;8.55;5.20;;;;;;;11.98;95.16;102190.44;6306263;22;20098;-75
2022/07/02 04:06:09;;;;;;;11.85;6.13;;;;;;;11.91;95.23;102187.31;6278780;22;20003;-77
2022/07/02 04:08:35;;;;;;;9.63;5.35;;;;;;;11.88;95.62;102186.59;6306461;22;20003;-80
2022/07/02 04:11:00;;;;;;;8.25;5.63;;;;;;;11.95;95.71;102195.75;6306511;22;20079;-74
2022/07/02 04:13:25;;;;;;;9.85;5.78;;;;;;;12.05;95.54;102197.00;6306820;22;20133;-78
2022/07/02 04:15:51;;;;;;;10.02;5.35;;;;;;;12.28;96.16;102193.31;6306626;22;20049;-74
2022/07/02 04:18:18;;;;;;;10.85;6.05;;;;;;;12.52;95.64;102191.28;6306406;22;20003;-76
2022/07/02 04:20:43;;;;;;;8.73;5.43;;;;;;;12.64;93.21;102190.66;6306749;22;20011;-79
2022/07/02 04:23:09;;;;;;;11.32;5.15;;;;;;;12.61;92.93;102193.41;6307557;22;20011;-80
2022/07/02 04:25:34;;;;;;;9.93;5.40;;;;;;;12.59;91.94;102195.25;6308734;22;20053;-77
2022/07/02 04:27:59;;;;;;;9.23;5.13;;;;;;;12.71;92.08;102193.81;6308534;22;20003;-78
2022/07/02 04:30:25;;;;;;;9.57;4.80;;;;;;;13.39;88.39;102187.69;6308827;22;20014;-78
2022/07/02 04:32:50;;;;;;;9.65;4.95;;;;;;;13.65;86.39;102188.03;6308779;22;20003;-78
2022/07/02 04:35:15;;;;;;;7.22;4.43;;;;;;;13.70;87.32;102194.66;6308485;22;20740;-79
2022/07/02 04:37:40;;;;;;;8.95;4.50;;;;;;;14.52;84.02;102178.81;6280888;22;20010;-73
2022/07/02 04:40:06;;;;;;;8.82;4.38;;;;;;;16.16;78.18;102198.25;6308383;22;20417;-80
2022/07/02 04:42:32;;;;;;;7.55;4.00;;;;;;;17.44;70.58;102188.75;6281131;22;20336;-81
2022/07/02 04:44:57;;;;;;;6.30;3.92;;;;;;;18.21;66.99;102190.19;6308899;22;20007;-80
2022/07/02 04:47:23;;;;;;;6.53;3.35;;;;;;;17.99;67.37;102187.44;6308463;22;20083;-77
2022/07/02 04:49:48;;;;;;;9.40;3.53;;;;;;;17.49;68.60;102186.66;6308838;22;20007;-79
2022/07/02 04:52:13;;;;;;;6.10;3.38;;;;;;;17.03;68.53;102170.75;6308690;22;20015;-79
2022/07/02 04:54:39;;;;;;;6.45;3.25;;;;;;;16.80;69.61;102186.19;6308562;22;19999;-81
2022/07/02 04:57:04;;;;;;;7.70;3.25;;;;;;;16.69;72.21;102187.84;6308220;22;20470;-76
2022/07/02 04:59:29;;;;;;;7.25;3.13;;;;;;;16.65;73.00;102192.41;6308442;22;20324;-79
2022/07/02 05:01:55;;;;;;;7.47;3.53;;;;;;;16.99;72.86;102191.00;6308059;22;20325;-80
2022/07/02 05:04:20;;;;;;;6.20;3.33;;;;;;;17.16;71.76;102187.25;6308346;22;19999;-81
2022/07/02 05:06:45;;;;;;;8.68;3.85;;;;;;;17.61;66.88;102166.69;6280880;22;20110;-81
2022/07/02 05:09:11;;;;;;;6.60;3.28;;;;;;;17.66;66.96;102162.78;6308433;22;20469;-75
2022/07/02 05:11:36;;;;;;;5.45;2.95;;;;;;;18.48;65.71;102192.50;6308251;22;20045;-81
2022/07/02 05:14:02;;;;;;;6.38;3.50;;;;;;;19.58;60.58;102183.25;6308126;22;20080;-82
2022/07/02 05:16:27;;;;;;;7.65;2.95;;;;;;;20.28;56.84;102182.78;6308481;22;20004;-75
2022/07/02 05:18:53;;;;;;;6.40;2.70;;;;;;;20.81;57.67;102183.53;6308588;22;20022;-81
2022/07/02 05:21:18;;;;;;;8.65;3.03;;;;;;;21.73;54.41;102165.09;6308173;22;20003;-79
2022/07/02 05:23:44;;;;;;;7.70;2.63;;;;;;;23.31;50.47;102182.97;6307694;22;20082;-79
2022/07/02 05:26:09;;;;;;;6.00;2.33;;;;;;;23.27;50.58;102182.41;6308240;22;20011;-77
2022/07/02 05:28:34;;;;;;;5.70;2.50;;;;;;;22.61;50.48;102188.59;6307987;22;19999;-79
2022/07/02 05:31:00;;;;;;;7.18;2.40;;;;;;;22.28;50.96;102197.78;6308729;22;20007;-87
2022/07/02 05:33:26;;;;;;;4.03;2.03;;;;;;;22.61;51.53;102193.00;6279170;22;20015;-89
2022/07/02 05:35:52;;;;;;;5.07;2.10;;;;;;;23.28;49.27;102151.59;6308656;22;20335;-84
2022/07/02 05:38:20;;;;;;;5.22;2.60;;;;;;;24.27;45.60;102152.41;6308168;22;20070;-78
2022/07/02 05:40:46;;;;;;;5.47;2.38;;;;;;;24.33;45.25;102133.34;6308265;22;20321;-93
2022/07/02 05:43:12;;;;;;;7.35;2.13;;;;;;;25.08;44.08;102173.25;6307939;22;20003;-87
2022/07/02 05:45:40;;;;;;;5.85;1.90;;;;;;;26.03;41.86;102198.44;6309400;22;20010;-82
2022/07/02 05:48:06;;;;;;;7.68;2.33;;;;;;;26.65;39.94;102203.25;6309969;22;19999;-93
2022/07/02 05:50:31;;;;;;;4.05;1.83;;;;;;;27.41;39.54;102195.50;6310416;22;19999;-86
2022/07/02 05:52:57;;;;;;;4.95;1.88;;;;;;;27.77;38.11;102179.06;6310920;22;20011;-85
2022/07/02 05:55:22;;;;;;;6.82;1.83;;;;;;;28.19;36.04;102196.31;6308798;22;20358;-89
2022/07/02 05:57:48;;;;;;;6.10;1.75;;;;;;;28.25;35.83;102199.09;6309658;22;20007;-76
2022/07/02 06:00:13;;;;;;;5.30;1.60;;;;;;;28.63;35.37;102198.28;6309111;22;20014;-92
2022/07/02 06:02:39;;;;;;;6.68;1.77;;;;;;;28.66;34.89;102203.22;6310039;22;20003;-87
2022/07/02 06:07:49;;;;;;;3.13;1.35;;;;;;;28.62;33.28;102207.25;6311688;22;20336;-86
2022/07/02 06:10:18;;;;;;;3.03;1.30;;;;;;;28.85;33.34;102192.03;6284377;22;20003;-90
2022/07/02 06:12:47;;;;;;;5.82;1.52;;;;;;;28.98;33.62;102192.22;6310867;22;20011;-92
2022/07/02 06:15:12;;;;;;;3.20;1.40;;;;;;;29.10;31.70;102197.88;6281810;22;20003;-90
2022/07/02 06:17:38;;;;;;;4.80;1.60;;;;;;;28.96;32.05;102177.47;6313062;22;20082;-92
2022/07/02 06:20:03;;;;;;;5.05;1.40;;;;;;;29.16;31.85;102191.00;6314866;22;20003;-93
2022/07/02 06:22:29;;;;;;;6.53;1.45;;;;;;;28.94;31.69;102161.69;6312979;22;20007;-91
2022/07/02 06:24:55;;;;;;;3.28;1.23;;;;;;;29.41;32.07;102198.50;6312157;22;20000;-93
2022/07/02 06:27:21;;;;;;;5.45;1.60;;;;;;;28.88;32.83;102181.00;6313259;22;20435;-89
2022/07/02 06:29:48;;;;;;;5.07;1.45;;;;;;;28.84;32.66;102185.88;6310357;22;20011;-93
2022/07/02 06:32:17;;;;;;;4.13;1.50;;;;;;;29.24;32.04;102191.75;6310228;22;20504;-79
2022/07/02 06:34:43;;;;;;;7.13;1.88;;;;;;;28.70;31.69;102122.91;6308537;22;19999;-90
2022/07/02 06:37:09;;;;;;;4.38;1.60;;;;;;;28.70;31.16;102093.66;6306338;22;19999;-84
2022/07/02 06:39:35;;;;;;;6.20;1.17;;;;;;;28.98;31.84;102173.59;6307918;22;20070;-91
2022/07/02 06:42:19;;;;;;;4.75;1.50;;;;;;;29.77;31.44;102213.63;6307757;22;20317;-89
2022/07/02 06:44:47;;;;;;;4.22;1.50;;;;;;;30.07;29.23;102205.53;6307998;22;20027;-93
2022/07/02 06:47:14;;;;;;;8.45;1.60;;;;;;;28.52;32.31;102211.00;6307035;22;20031;-89
2022/07/02 06:49:39;;;;;;;4.63;1.30;;;;;;;27.36;34.79;102205.00;6279861;22;20443;-89
2022/07/02 06:52:05;;;;;;;3.40;1.30;;;;;;;26.64;36.96;102206.88;6307663;22;20038;-93
2022/07/02 06:54:31;;;;;;;4.90;1.52;;;;;;;26.02;36.69;102176.44;6308360;22;20003;-78
2022/07/02 06:56:56;;;;;;;2.63;1.38;;;;;;;25.49;38.77;102207.75;6306765;22;20060;-87
2022/07/02 06:59:40;;;;;;;3.88;1.52;;;;;;;25.53;39.21;102204.63;6307245;22;20074;-90
2022/07/02 07:02:07;;;;;;;2.92;1.40;;;;;;;26.61;37.55;102208.03;6279803;22;20003;-91
2022/07/02 07:04:34;;;;;;;3.85;1.30;;;;;;;27.34;33.71;102109.69;6279387;22;20091;-92
2022/07/02 07:07:04;;;;;;;3.28;1.20;;;;;;;29.21;30.82;102197.44;6307077;22;20006;-89
2022/07/02 07:09:30;;;;;;;4.63;1.08;;;;;;;29.97;29.51;102129.41;6307081;22;20144;-91
2022/07/02 07:11:56;;;;;;;3.67;1.08;;;;;;;29.81;30.03;102084.44;6307196;22;20025;-89
2022/07/02 07:14:21;;;;;;;4.18;1.30;;;;;;;29.07;31.14;102106.00;6307646;22;20074;-89
2022/07/02 07:16:47;;;;;;;4.43;1.02;;;;;;;29.85;30.75;102202.03;6306895;22;20003;-89
2022/07/02 07:19:25;;;;;;;3.50;1.10;;;;;;;30.59;30.31;102174.97;6306985;22;19999;-80
2022/07/02 07:21:56;;;;;;;5.63;1.10;;;;;;;31.10;28.45;102178.91;6306971;22;20014;-85
2022/07/02 07:24:21;;;;;;;3.42;0.88;;;;;;;31.69;28.08;102178.28;6306980;22;20449;-89
2022/07/02 07:26:47;;;;;;;4.57;1.05;;;;;;;31.29;26.06;102107.16;6306799;22;20015;-87
2022/07/02 07:29:12;;;;;;;2.90;0.70;;;;;;;31.47;27.45;102127.94;6306898;22;20006;-85
2022/07/02 07:31:38;;;;;;;2.38;0.75;;;;;;;31.93;26.56;102200.09;6307097;22;19999;-89
2022/07/02 07:34:04;;;;;;;6.25;0.93;;;;;;;31.75;25.33;102130.38;6306948;22;20017;-91
2022/07/02 07:36:29;;;;;;;3.83;0.73;;;;;;;31.64;25.52;102131.81;6306843;22;20049;-89
2022/07/02 07:38:55;;;;;;;4.10;0.90;;;;;;;31.70;25.73;102104.31;6307114;22;20007;-87
2022/07/02 07:41:22;;;;;;;3.85;0.98;;;;;;;31.99;25.99;102126.31;6306810;22;20031;-91
2022/07/02 07:43:48;;;;;;;2.33;0.90;;;;;;;31.69;26.73;102206.81;6306843;22;20369;-89
2022/07/02 07:46:14;;;;;;;3.03;0.95;;;;;;;29.90;27.40;102211.09;6306818;22;20093;-90
2022/07/02 07:48:39;;;;;;;4.70;1.00;;;;;;;27.89;32.59;102214.81;6306616;22;19999;-88
2022/07/02 07:51:05;;;;;;;3.65;0.98;;;;;;;25.75;34.03;102118.53;6306963;22;19999;-88
2022/07/02 07:53:31;;;;;;;4.05;1.13;;;;;;;25.41;36.26;102190.03;6306840;22;20054;-82
2022/07/02 07:55:57;;;;;;;2.45;0.88;;;;;;;24.80;37.97;102207.75;6305971;22;20003;-87
2022/07/02 07:58:22;;;;;;;3.58;1.10;;;;;;;24.35;39.16;102213.22;6310610;22;20004;-82
2022/07/02 08:00:48;;;;;;;5.55;1.00;;;;;;;23.95;40.54;102211.03;6309987;22;19999;-77
2022/07/02 08:03:14;;;;;;;3.95;1.00;;;;;;;23.58;39.42;102182.09;6310129;22;20018;-78
2022/07/02 08:05:40;;;;;;;4.93;1.00;;;;;;;23.50;41.32;102203.94;6310095;22;20010;-79
2022/07/02 08:08:07;;;;;;;4.28;1.00;;;;;;;23.08;42.44;102191.22;6309882;22;20033;-78
2022/07/02 08:10:33;;;;;;;5.05;1.17;;;;;;;22.94;43.52;102204.91;6310218;22;20048;-80
2022/07/02 08:12:58;;;;;;;6.22;1.17;;;;;;;22.94;44.84;102199.63;6310293;22;20367;-77
2022/07/02 08:15:24;;;;;;;4.20;1.10;;;;;;;22.90;42.84;102201.69;6310243;22;20417;-81
2022/07/02 08:17:50;;;;;;;4.13;1.25;;;;;;;22.82;44.82;102198.94;6309854;22;20010;-73
2022/07/02 08:20:15;;;;;;;2.45;1.13;;;;;;;22.93;45.60;102199.78;6309677;22;20270;-77
2022/07/02 08:22:42;;;;;;;6.03;1.63;;;;;;;22.94;43.79;102199.63;6310184;22;20011;-77
2022/07/02 08:25:08;;;;;;;5.03;1.23;;;;;;;22.99;46.31;102202.63;6309465;22;20003;-77
2022/07/02 08:27:33;;;;;;;3.72;1.17;;;;;;;22.86;45.63;102183.69;6309685;22;20458;-80
2022/07/02 08:29:59;;;;;;;4.80;1.08;;;;;;;22.77;43.75;102192.44;6310189;22;20003;-75
2022/07/02 08:32:25;;;;;;;2.65;0.90;;;;;;;22.52;46.19;102165.75;6309698;22;20053;-78
2022/07/02 08:34:52;;;;;;;3.17;1.13;;;;;;;22.37;43.90;102169.78;6309868;22;20390;-76
2022/07/02 08:37:18;;;;;;;4.15;1.10;;;;;;;22.63;45.37;102182.38;6282677;22;20007;-77
2022/07/02 08:39:43;;;;;;;3.03;1.20;;;;;;;22.66;45.51;102187.34;6309898;22;20008;-78
2022/07/02 08:42:09;;;;;;;4.45;1.00;;;;;;;22.64;44.40;102182.22;6309840;22;19999;-79
2022/07/02 08:44:36;;;;;;;3.22;1.00;;;;;;;22.65;42.49;102170.72;6309928;22;20011;-74
2022/07/02 08:47:08;;;;;;;3.30;1.42;;;;;;;22.64;45.27;102165.59;6282301;22;20306;-78
2022/07/02 08:49:34;;;;;;;5.72;1.13;;;;;;;22.68;44.75;102174.84;6309684;22;20007;-77
2022/07/02 08:52:04;;;;;;;5.40;1.50;;;;;;;21.94;44.92;102059.75;6309771;22;20098;-76
2022/07/02 08:54:33;;;;;;;5.20;1.65;;;;;;;22.66;45.81;102180.25;6309746;22;20030;-77
2022/07/02 08:57:02;;;;;;;5.10;1.40;;;;;;;22.60;45.41;102180.81;6309795;22;20060;-76
2022/07/02 08:59:31;;;;;;;4.90;1.40;;;;;;;22.66;44.11;102172.38;6309699;22;20092;-76
2022/07/02 09:01:57;;;;;;;6.82;1.40;;;;;;;22.40;44.11;102127.38;6309801;22;20026;-75
2022/07/02 09:04:24;;;;;;;5.82;1.33;;;;;;;22.72;45.72;102173.63;6282655;22;20015;-75
2022/07/02 09:06:53;;;;;;;2.75;1.33;;;;;;;22.71;45.56;102172.75;6282472;22;20003;-75
2022/07/02 09:09:18;;;;;;;4.68;1.30;;;;;;;22.72;46.45;102163.06;6308696;22;20008;-80
2022/07/02 09:11:44;;;;;;;4.63;1.45;;;;;;;22.55;46.48;102170.72;6307908;22;20358;-75
2022/07/02 09:14:12;;;;;;;4.22;1.10;;;;;;;22.41;45.07;102160.63;6307904;22;20298;-77
2022/07/02 09:16:38;;;;;;;7.30;1.45;;;;;;;22.51;47.37;102155.34;6308198;22;20039;-75
2022/07/02 09:19:04;;;;;;;6.35;1.45;;;;;;;22.51;45.74;102143.00;6308433;22;20298;-81
2022/07/02 09:21:49;;;;;;;5.22;1.50;;;;;;;22.66;47.41;102148.66;6308239;22;20003;-79
2022/07/02 09:24:26;;;;;;;6.78;1.30;;;;;;;22.77;47.66;102151.13;6282647;22;20008;-78
2022/07/02 09:27:16;;;;;;;4.45;1.40;;;;;;;22.79;46.81;102148.34;6307494;22;20018;-81
2022/07/02 09:29:52;;;;;;;5.80;1.37;;;;;;;22.77;47.59;102151.13;6307811;22;20015;-77
2022/07/02 09:32:19;;;;;;;7.40;1.63;;;;;;;22.81;46.91;102146.38;6307583;22;20315;-80
2022/07/02 09:34:52;;;;;;;3.47;1.33;;;;;;;22.86;47.27;102147.66;6307749;22;20007;-78
2022/07/02 09:37:22;;;;;;;5.53;1.60;;;;;;;22.92;45.62;102148.88;6308055;22;20079;-78
2022/07/02 09:39:49;;;;;;;5.00;1.50;;;;;;;22.77;46.81;102108.16;6307888;22;20026;-78
2022/07/02 09:42:37;;;;;;;6.32;1.52;;;;;;;22.91;46.68;102128.78;6307194;22;20003;-79
2022/07/02 09:45:17;;;;;;;5.40;1.42;;;;;;;21.93;43.54;101992.34;6307801;22;20031;-80
2022/07/02 09:47:51;;;;;;;7.30;1.50;;;;;;;22.11;46.49;102006.41;6307873;22;20011;-80
2022/07/02 09:50:24;;;;;;;4.47;1.60;;;;;;;22.97;47.90;102124.72;6307605;22;20375;-77
2022/07/02 09:52:52;;;;;;;4.03;1.45;;;;;;;22.67;46.26;102108.19;6307646;22;20383;-79
2022/07/02 09:55:30;;;;;;;7.43;1.55;;;;;;;22.69;47.93;102100.97;6307128;22;20070;-79
2022/07/02 09:58:00;;;;;;;3.92;1.45;;;;;;;22.81;44.63;102101.59;6307309;22;20003;-78
2022/07/02 10:00:28;;;;;;;3.80;1.40;;;;;;;23.02;46.06;102122.50;6308172;22;20000;-76
2022/07/02 10:02:56;;;;;;;3.60;1.42;;;;;;;23.23;44.36;102109.91;6307393;22;20124;-80
2022/07/02 10:05:31;;;;;;;6.22;1.40;;;;;;;23.20;45.18;102046.91;6307557;22;20428;-77
2022/07/02 10:07:59;;;;;;;4.65;1.05;;;;;;;23.65;44.96;102112.81;6307800;22;19999;-80
2022/07/02 10:10:38;;;;;;;3.22;1.30;;;;;;;23.50;43.86;102118.72;6307283;22;19999;-78
2022/07/02 10:13:08;;;;;;;3.15;1.20;;;;;;;23.36;42.45;102110.34;6307605;22;20294;-79
2022/07/02 10:15:37;;;;;;;4.57;1.42;;;;;;;23.17;45.07;102065.69;6307491;22;20007;-79
2022/07/02 10:18:03;;;;;;;3.13;1.10;;;;;;;23.44;44.35;102105.19;6304763;22;19999;-79
2022/07/02 10:20:32;;;;;;;5.50;1.48;;;;;;;23.59;43.43;102099.41;6308037;22;20320;-77
2022/07/02 10:23:05;;;;;;;4.47;1.15;;;;;;;23.63;44.56;102103.41;6308029;22;20007;-77
2022/07/02 10:25:32;;;;;;;4.90;1.52;;;;;;;23.78;43.06;102106.31;6308527;22;20426;-75
2022/07/02 10:27:57;;;;;;;5.03;1.38;;;;;;;23.97;41.77;102090.31;6306709;22;20022;-75
2022/07/02 10:30:32;;;;;;;4.15;1.20;;;;;;;24.22;41.83;102083.41;6307630;22;20007;-78
2022/07/02 10:33:21;;;;;;;4.63;1.25;;;;;;;24.13;40.16;102092.25;6307145;22;20007;-75
2022/07/02 10:35:48;;;;;;;4.35;1.42;;;;;;;24.26;39.72;102084.75;6279153;22;20306;-78
2022/07/02 10:38:14;;;;;;;5.63;1.38;;;;;;;24.43;42.99;102080.44;6307045;22;20306;-77
2022/07/02 10:40:49;;;;;;;4.05;1.35;;;;;;;24.48;39.26;102080.78;6307170;22;20043;-78
2022/07/02 10:43:16;;;;;;;3.15;1.13;;;;;;;24.53;40.39;102083.78;6306565;22;20082;-75
2022/07/02 10:45:42;;;;;;;4.68;1.00;;;;;;;24.43;40.23;102061.94;6307298;22;19999;-78
2022/07/02 10:48:10;;;;;;;5.13;1.10;;;;;;;24.55;39.35;102092.38;6307256;22;20003;-77
2022/07/02 10:50:35;;;;;;;4.38;1.20;;;;;;;24.42;39.60;102091.97;6306608;22;20416;-78
2022/07/02 10:53:11;;;;;;;5.30;1.10;;;;;;;24.35;40.51;102090.94;6307043;22;20003;-74
2022/07/02 10:55:38;;;;;;;3.13;1.10;;;;;;;24.50;38.30;102084.09;6306541;22;20000;-78
2022/07/02 10:58:06;;;;;;;4.70;1.00;;;;;;;24.68;40.71;102073.44;6306665;22;20007;-78
2022/07/02 11:00:40;;;;;;;5.22;1.10;;;;;;;25.02;40.49;102078.72;6307244;22;20003;-77
2022/07/02 11:03:26;;;;;;;4.60;1.60;;;;;;;25.21;39.81;102072.31;6307213;22;20013;-78
2022/07/02 11:06:05;;;;;;;3.78;1.00;;;;;;;25.21;38.27;102082.91;6306733;22;20074;-77
2022/07/02 11:08:46;;;;;;;4.88;1.02;;;;;;;25.14;39.04;102080.91;6307348;22;19999;-75
2022/07/02 11:11:45;;;;;;;2.35;0.98;;;;;;;25.07;39.48;102076.41;6279360;22;20076;-79
2022/07/02 11:14:13;;;;;;;3.78;0.93;;;;;;;24.55;40.25;102040.38;6307335;22;20030;-79
2022/07/02 11:16:49;;;;;;;2.15;0.85;;;;;;;24.66;40.31;102070.97;6306837;22;19999;-79
2022/07/02 11:19:19;;;;;;;4.65;1.05;;;;;;;24.85;37.47;102075.16;6306772;22;19999;-79
2022/07/02 11:21:46;;;;;;;3.65;1.17;;;;;;;24.93;37.55;102058.50;6306823;22;20009;-79
2022/07/02 11:24:35;;;;;;;3.83;1.20;;;;;;;25.16;39.04;102070.16;6306749;22;20053;-80
2022/07/02 11:27:00;;;;;;;2.88;0.80;;;;;;;25.45;36.48;102070.53;6305946;22;20090;-79
2022/07/02 11:29:26;;;;;;;2.63;0.90;;;;;;;25.36;37.67;102057.47;6306999;22;20030;-80